Time;durP1;ratioP1;P1;durP2;ratioP2;P2;SDS_P1;SDS_P2;PMS_P1;PMS_P2;Temp;Humidity;BMP_temperature;BMP_pressure;BME280_temperature;BME280_humidity;BME280_pressure;Samples;Min_cycle;Max_cycle;Signal;HPM_P1;HPM_P2
2023/11/16 00:00:05;;;;;;;9.40;0.40;;;;;;;5.53;60.46;100830.59;5005158;28;20034;-72
2023/11/16 00:02:43;;;;;;;4.07;0.65;;;;;;;5.51;60.48;100827.16;4996944;28;20052;-72
2023/11/16 00:05:13;;;;;;;5.45;0.68;;;;;;;5.87;59.77;100853.22;5008862;28;20591;-72
2023/11/16 00:07:45;;;;;;;4.55;0.55;;;;;;;5.74;60.38;100838.81;5005989;28;20672;-72
2023/11/16 00:10:11;;;;;;;6.70;0.93;;;;;;;5.08;62.04;100840.94;5000110;28;20424;-72
2023/11/16 00:12:39;;;;;;;6.03;0.45;;;;;;;5.55;61.71;100849.56;5000809;28;20034;-69
2023/11/16 00:15:08;;;;;;;8.07;0.50;;;;;;;5.60;61.78;100855.50;5004060;28;20049;-69
2023/11/16 00:17:36;;;;;;;5.72;0.57;;;;;;;5.41;62.42;100856.72;4996324;28;20659;-69
2023/11/16 00:20:04;;;;;;;6.80;0.65;;;;;;;5.64;62.06;100853.72;5000350;28;20049;-68
2023/11/16 00:22:30;;;;;;;2.72;0.25;;;;;;;5.61;61.95;100858.94;5002107;28;20037;-70
2023/11/16 00:24:58;;;;;;;6.97;0.63;;;;;;;5.74;61.76;100855.22;4999072;28;20128;-70
2023/11/16 00:27:26;;;;;;;5.43;0.85;;;;;;;5.17;63.11;100858.91;5000168;28;20033;-67
2023/11/16 00:29:52;;;;;;;6.00;0.40;;;;;;;5.52;62.10;100849.59;4987163;28;20047;-68
2023/11/16 00:32:18;;;;;;;9.18;0.73;;;;;;;5.32;62.99;100841.34;5002309;28;20041;-70
2023/11/16 00:34:44;;;;;;;10.32;1.95;;;;;;;5.46;62.75;100850.59;4994926;28;20709;-71
2023/11/16 00:37:10;;;;;;;15.48;1.60;;;;;;;5.64;61.33;100864.94;5004794;28;20034;-72
2023/11/16 00:39:38;;;;;;;4.10;0.30;;;;;;;5.40;62.49;100871.44;4995056;28;20145;-74
2023/11/16 00:42:05;;;;;;;8.25;0.60;;;;;;;5.69;62.08;100869.19;5010070;28;20041;-72
2023/11/16 00:44:30;;;;;;;13.40;0.73;;;;;;;5.76;61.94;100881.13;5015528;28;20033;-72
2023/11/16 00:46:58;;;;;;;13.80;0.85;;;;;;;5.90;61.13;100865.28;5000588;28;21336;-74
2023/11/16 00:49:24;;;;;;;7.22;0.13;;;;;;;5.75;61.46;100867.31;4990748;28;20038;-75
2023/11/16 00:51:52;;;;;;;7.55;0.40;;;;;;;6.35;59.88;100889.44;4985370;28;20423;-74
2023/11/16 00:54:18;;;;;;;5.60;0.30;;;;;;;6.38;60.17;100904.09;5003358;28;20046;-73
2023/11/16 00:56:44;;;;;;;8.70;0.52;;;;;;;6.18;60.92;100927.84;4988314;28;20048;-74
2023/11/16 00:59:10;;;;;;;6.40;0.70;;;;;;;5.87;62.02;100931.06;4989500;28;20069;-72
2023/11/16 01:01:37;;;;;;;8.45;0.70;;;;;;;5.95;62.04;100926.59;4997190;28;20807;-73
2023/11/16 01:04:09;;;;;;;9.93;0.85;;;;;;;5.81;62.41;100937.19;4987536;28;20687;-73
2023/11/16 01:06:36;;;;;;;3.63;0.30;;;;;;;5.78;63.12;100939.88;4991065;28;20048;-72
2023/11/16 01:09:06;;;;;;;2.58;0.50;;;;;;;5.90;62.33;100953.47;5000264;28;21360;-75
2023/11/16 01:11:36;;;;;;;3.42;0.40;;;;;;;5.60;62.38;100951.44;4989511;28;20029;-74
2023/11/16 01:14:03;;;;;;;4.93;0.30;;;;;;;5.58;61.95;100962.72;4991148;28;20037;-73
2023/11/16 01:16:41;;;;;;;6.85;0.55;;;;;;;5.41;62.27;100969.06;5001468;28;20221;-74
2023/11/16 01:19:10;;;;;;;3.90;0.10;;;;;;;5.49;61.32;100979.28;4968018;28;20041;-73
2023/11/16 01:21:44;;;;;;;4.63;0.25;;;;;;;5.47;61.29;100970.69;4986488;28;20041;-74
2023/11/16 01:24:11;;;;;;;1.50;0.22;;;;;;;5.63;60.34;100977.28;4991691;28;20084;-73
2023/11/16 01:26:39;;;;;;;5.95;0.25;;;;;;;5.43;60.85;100966.41;5007499;28;20060;-73
2023/11/16 01:29:09;;;;;;;4.85;0.75;;;;;;;5.01;60.71;100981.78;4997963;28;20107;-72
2023/11/16 01:31:39;;;;;;;4.30;0.47;;;;;;;5.19;60.24;100984.09;4985208;28;20042;-69
2023/11/16 01:34:10;;;;;;;7.53;0.40;;;;;;;5.04;60.47;100992.09;4997694;28;20038;-67
2023/11/16 01:36:37;;;;;;;3.00;0.28;;;;;;;4.79;60.80;100997.63;4999151;28;20054;-68
2023/11/16 01:39:03;;;;;;;1.30;0.40;;;;;;;4.78;60.77;101003.66;4997882;28;20046;-68
2023/11/16 01:41:28;;;;;;;4.53;0.47;;;;;;;5.05;59.93;101014.53;5006775;28;20036;-68
2023/11/16 01:43:56;;;;;;;1.30;0.10;;;;;;;4.86;60.43;101013.06;4990274;28;21119;-66
2023/11/16 01:46:22;;;;;;;6.07;0.20;;;;;;;4.69;60.92;101027.09;5003251;28;20049;-68
2023/11/16 01:48:49;;;;;;;1.05;0.20;;;;;;;4.86;60.39;101034.63;4997589;28;20518;-69
2023/11/16 01:51:19;;;;;;;1.80;0.10;;;;;;;5.09;59.75;101049.88;5008201;28;20048;-67
2023/11/16 01:53:54;;;;;;;1.30;0.10;;;;;;;4.88;59.98;101043.28;4995043;28;20046;-67
2023/11/16 01:56:20;;;;;;;5.45;0.20;;;;;;;4.92;59.02;101044.97;4991972;28;20068;-69
2023/11/16 01:58:51;;;;;;;2.83;0.30;;;;;;;5.06;58.55;101052.53;4992640;28;20397;-67
2023/11/16 02:01:19;;;;;;;2.47;0.10;;;;;;;4.95;58.22;101057.00;4989200;28;20030;-71
2023/11/16 02:03:46;;;;;;;3.13;0.10;;;;;;;5.06;57.83;101073.25;5000072;28;20280;-71
2023/11/16 02:06:12;;;;;;;3.72;0.20;;;;;;;4.91;58.04;101078.63;5006553;28;20132;-73
2023/11/16 02:08:38;;;;;;;4.22;0.45;;;;;;;4.70;58.68;101080.59;4989625;28;20124;-73
2023/11/16 02:11:05;;;;;;;6.45;0.43;;;;;;;4.80;58.62;101089.94;4995884;28;20051;-74
2023/11/16 02:13:31;;;;;;;0.45;0.10;;;;;;;4.85;58.55;101095.06;5004538;28;20045;-75
2023/11/16 02:15:57;;;;;;;2.35;0.00;;;;;;;4.55;59.05;101104.94;4987243;28;21438;-74
2023/11/16 02:18:25;;;;;;;2.20;0.10;;;;;;;4.96;58.09;101102.75;4989498;28;20077;-76
2023/11/16 02:20:53;;;;;;;1.05;0.10;;;;;;;4.37;59.09;101111.16;5009364;28;20041;-73
2023/11/16 02:23:21;;;;;;;5.05;0.30;;;;;;;4.69;58.70;101120.28;5006066;28;20038;-74
2023/11/16 02:25:52;;;;;;;2.05;0.15;;;;;;;4.82;57.91;101127.03;5001115;28;20030;-68
2023/11/16 02:28:19;;;;;;;3.20;0.00;;;;;;;4.86;57.79;101127.88;5003163;28;20113;-73
2023/11/16 02:30:46;;;;;;;2.17;0.22;;;;;;;4.67;58.16;101132.41;5008447;28;20025;-72
2023/11/16 02:33:14;;;;;;;3.35;0.00;;;;;;;4.89;57.56;101137.38;5004054;28;20250;-73
2023/11/16 02:35:39;;;;;;;1.30;0.20;;;;;;;5.10;56.91;101139.72;4988776;28;20084;-72
2023/11/16 02:38:08;;;;;;;2.15;0.10;;;;;;;4.80;57.00;101141.75;4990475;28;20076;-72
2023/11/16 02:40:36;;;;;;;0.43;0.00;;;;;;;4.69;56.63;101141.00;5002455;28;20523;-74
2023/11/16 02:43:05;;;;;;;1.80;0.13;;;;;;;4.58;57.18;101150.63;4990915;28;20059;-72
2023/11/16 02:45:32;;;;;;;1.50;0.00;;;;;;;4.24;56.86;101163.06;5004924;28;20032;-72
2023/11/16 02:47:59;;;;;;;2.65;0.08;;;;;;;4.27;56.82;101168.19;4992485;28;20041;-69
2023/11/16 02:50:26;;;;;;;0.38;0.00;;;;;;;4.19;56.42;101166.53;5002891;28;20040;-70
2023/11/16 02:52:52;;;;;;;1.85;0.60;;;;;;;4.24;56.45;101163.91;5004764;28;20034;-70
2023/11/16 02:55:20;;;;;;;2.47;0.10;;;;;;;4.43;55.48;101162.88;5003451;28;20071;-73
2023/11/16 02:57:46;;;;;;;2.30;0.03;;;;;;;4.50;55.05;101166.25;5006311;28;20822;-72
2023/11/16 03:00:12;;;;;;;4.68;0.00;;;;;;;4.62;54.92;101170.44;5004594;28;20037;-69
2023/11/16 03:02:41;;;;;;;2.38;0.38;;;;;;;4.57;55.07;101178.25;5005958;28;20025;-70
2023/11/16 03:05:10;;;;;;;0.95;0.10;;;;;;;4.37;55.01;101196.56;4989731;28;20108;-67
2023/11/16 03:07:37;;;;;;;1.10;0.00;;;;;;;4.64;55.02;101200.63;5002904;28;20041;-68
2023/11/16 03:10:04;;;;;;;1.65;0.10;;;;;;;4.35;55.37;101195.72;4987475;28;21171;-69
2023/11/16 03:12:30;;;;;;;0.20;0.00;;;;;;;4.49;55.21;101192.13;5010100;28;20208;-70
2023/11/16 03:14:57;;;;;;;4.32;0.10;;;;;;;4.24;55.84;101194.94;4996260;28;20073;-65
2023/11/16 03:17:23;;;;;;;0.38;0.00;;;;;;;4.35;55.77;101203.47;5009149;28;20092;-67
2023/11/16 03:19:48;;;;;;;0.28;0.00;;;;;;;4.12;56.38;101205.38;4997937;28;20037;-73
2023/11/16 03:22:14;;;;;;;4.57;0.15;;;;;;;3.84;57.33;101207.31;5004070;28;20152;-71
2023/11/16 03:24:39;;;;;;;7.95;0.17;;;;;;;4.31;56.52;101201.78;4969436;28;20073;-71
2023/11/16 03:27:05;;;;;;;1.30;0.30;;;;;;;4.15;57.37;101211.41;4991243;28;20029;-73
2023/11/16 03:29:31;;;;;;;0.68;0.10;;;;;;;4.32;57.15;101216.47;4986138;28;20044;-72
2023/11/16 03:31:56;;;;;;;3.45;0.10;;;;;;;4.43;56.89;101221.50;4987490;28;20112;-72
2023/11/16 03:34:22;;;;;;;1.67;0.05;;;;;;;4.35;57.63;101231.09;5004199;28;20048;-72
2023/11/16 03:36:49;;;;;;;0.40;0.20;;;;;;;4.25;57.47;101238.06;4991590;28;20469;-72
2023/11/16 03:39:17;;;;;;;2.55;0.10;;;;;;;4.45;56.46;101242.22;5002478;28;20061;-72
2023/11/16 03:41:43;;;;;;;1.73;0.00;;;;;;;4.46;56.46;101231.00;5002582;28;20065;-71
2023/11/16 03:44:08;;;;;;;0.50;0.10;;;;;;;4.37;56.13;101237.97;4997844;28;20068;-72
2023/11/16 03:46:34;;;;;;;3.83;0.10;;;;;;;4.21;55.98;101244.16;5012178;28;20042;-71
2023/11/16 03:48:59;;;;;;;3.63;0.10;;;;;;;4.21;56.27;101237.25;4995579;28;20053;-70
2023/11/16 03:51:29;;;;;;;0.30;0.30;;;;;;;4.33;56.20;101251.78;5011109;28;20036;-71
2023/11/16 03:53:58;;;;;;;1.63;0.10;;;;;;;4.27;56.24;101241.50;5000144;28;20049;-71
2023/11/16 03:56:23;;;;;;;0.47;0.10;;;;;;;4.13;56.75;101240.75;5007628;28;20033;-70
2023/11/16 03:58:49;;;;;;;6.22;0.10;;;;;;;4.01;57.08;101236.53;5005705;28;20107;-72
2023/11/16 04:01:15;;;;;;;2.47;0.10;;;;;;;4.13;56.87;101246.78;5007470;28;20393;-71
2023/11/16 04:03:42;;;;;;;1.30;0.00;;;;;;;4.12;56.69;101252.84;5005151;28;20080;-70
2023/11/16 04:06:17;;;;;;;3.03;0.00;;;;;;;4.02;56.99;101252.00;4984206;28;20458;-71
2023/11/16 04:08:43;;;;;;;1.73;0.00;;;;;;;3.75;57.37;101237.53;4987633;28;20121;-71
2023/11/16 04:11:10;;;;;;;1.45;0.00;;;;;;;3.90;57.07;101251.25;4996005;28;20029;-70
2023/11/16 04:13:36;;;;;;;1.10;0.05;;;;;;;3.94;56.78;101247.75;5000626;28;20214;-72
2023/11/16 04:16:02;;;;;;;0.00;0.00;;;;;;;3.88;57.14;101259.00;4997274;28;20124;-71
2023/11/16 04:18:28;;;;;;;2.67;0.10;;;;;;;3.91;57.19;101264.16;5003889;28;20128;-70
2023/11/16 04:20:53;;;;;;;1.25;0.10;;;;;;;3.75;57.64;101272.88;5006028;28;20577;-71
2023/11/16 04:23:20;;;;;;;3.38;0.20;;;;;;;3.91;57.23;101271.91;4984423;28;20464;-72
2023/11/16 04:25:46;;;;;;;5.43;0.25;;;;;;;4.06;56.75;101277.88;5004439;28;20597;-72
2023/11/16 04:28:13;;;;;;;0.30;0.00;;;;;;;3.94;57.23;101282.25;4988368;28;20125;-70
2023/11/16 04:30:38;;;;;;;2.67;0.10;;;;;;;4.10;56.68;101274.41;5009822;28;20128;-70
2023/11/16 04:33:04;;;;;;;3.90;0.20;;;;;;;4.13;56.48;101274.38;4997660;28;20057;-65
2023/11/16 04:35:30;;;;;;;1.77;0.00;;;;;;;4.06;56.64;101273.56;5009077;28;20080;-67
2023/11/16 04:37:55;;;;;;;2.15;1.13;;;;;;;4.01;56.27;101273.59;4996274;28;20451;-65
2023/11/16 04:40:22;;;;;;;2.00;0.10;;;;;;;3.87;56.50;101271.94;4990144;28;20040;-68
2023/11/16 04:42:48;;;;;;;2.83;0.10;;;;;;;3.75;57.14;101281.50;5006449;28;20053;-65
2023/11/16 04:45:18;;;;;;;7.00;0.10;;;;;;;3.74;56.92;101286.69;5005102;28;20034;-65
2023/11/16 04:47:45;;;;;;;1.85;0.20;;;;;;;3.67;57.38;101279.81;5001643;28;20057;-66
2023/11/16 04:50:13;;;;;;;2.97;0.10;;;;;;;3.53;57.49;101282.44;5002670;28;20508;-65
2023/11/16 04:52:43;;;;;;;5.05;0.10;;;;;;;3.58;57.43;101276.41;5002923;28;20143;-64
2023/11/16 04:55:11;;;;;;;0.90;0.00;;;;;;;3.68;56.65;101286.72;4998696;28;20045;-70
2023/11/16 04:57:37;;;;;;;2.67;0.10;;;;;;;3.47;57.53;101285.94;5001022;28;20036;-70
2023/11/16 05:00:10;;;;;;;2.63;0.00;;;;;;;3.57;56.93;101281.59;4979282;28;20076;-69
2023/11/16 05:02:39;;;;;;;0.68;0.13;;;;;;;3.54;56.81;101289.34;4993400;28;20136;-70
2023/11/16 05:05:05;;;;;;;0.98;0.10;;;;;;;3.43;57.33;101286.81;4998368;28;20615;-67
2023/11/16 05:07:30;;;;;;;1.10;0.20;;;;;;;3.39;57.13;101288.53;4999348;28;20030;-66
2023/11/16 05:09:58;;;;;;;4.80;0.10;;;;;;;3.28;57.07;101287.69;4994857;28;20057;-66
2023/11/16 05:12:25;;;;;;;1.52;0.30;;;;;;;3.34;57.12;101294.59;4999747;28;20025;-74
2023/11/16 05:14:53;;;;;;;0.35;0.00;;;;;;;3.32;56.94;101286.00;4997302;28;20057;-70
2023/11/16 05:17:19;;;;;;;1.85;0.20;;;;;;;3.26;57.02;101292.00;5008728;28;20492;-70
2023/11/16 05:19:45;;;;;;;1.63;0.10;;;;;;;3.25;57.12;101286.81;4998931;28;20464;-69
2023/11/16 05:22:10;;;;;;;1.17;0.20;;;;;;;3.19;56.75;101287.72;5004086;28;20064;-69
2023/11/16 05:24:35;;;;;;;0.45;0.00;;;;;;;3.13;56.86;101296.31;5000649;28;20037;-69
2023/11/16 05:27:02;;;;;;;3.33;0.73;;;;;;;2.97;57.36;101290.31;4997633;28;20036;-71
2023/11/16 05:29:34;;;;;;;3.15;0.20;;;;;;;3.05;57.34;101290.31;4999197;28;20072;-69
2023/11/16 05:31:59;;;;;;;0.93;0.05;;;;;;;3.04;57.20;101296.34;4998870;28;20033;-72
2023/11/16 05:34:29;;;;;;;4.93;0.32;;;;;;;2.99;56.90;101290.34;4999282;28;20052;-69
2023/11/16 05:36:55;;;;;;;2.30;0.05;;;;;;;2.95;57.10;101298.94;4998081;28;20026;-67
2023/11/16 05:39:21;;;;;;;1.60;0.00;;;;;;;2.91;56.96;101297.22;4996348;28;20055;-66
2023/11/16 05:41:49;;;;;;;1.45;0.10;;;;;;;2.91;56.78;101302.38;5001313;28;20112;-68
2023/11/16 05:44:17;;;;;;;2.40;0.30;;;;;;;2.87;56.94;101305.84;4995577;28;20697;-68
2023/11/16 05:46:44;;;;;;;0.60;0.30;;;;;;;2.89;57.17;101306.69;5001617;28;20022;-66
2023/11/16 05:49:10;;;;;;;3.58;0.10;;;;;;;2.81;57.05;101309.28;4984000;28;20110;-68
2023/11/16 05:51:39;;;;;;;0.52;0.03;;;;;;;2.84;56.80;101314.44;4997617;28;20059;-67
2023/11/16 05:54:08;;;;;;;1.75;0.10;;;;;;;2.75;57.32;101307.56;4996457;28;20034;-68
2023/11/16 05:56:40;;;;;;;1.08;0.00;;;;;;;2.83;57.12;101309.31;4997431;28;20036;-71
2023/11/16 05:59:10;;;;;;;0.15;0.00;;;;;;;2.84;57.32;101321.34;5002566;28;20042;-67
2023/11/16 06:01:39;;;;;;;1.45;0.10;;;;;;;2.96;57.46;101311.00;4998538;28;20083;-67
2023/11/16 06:04:09;;;;;;;0.98;0.10;;;;;;;3.03;57.70;101312.72;4996881;28;20030;-67
2023/11/16 06:06:35;;;;;;;2.28;0.10;;;;;;;3.15;57.68;101315.25;5000845;28;20048;-69
2023/11/16 06:09:01;;;;;;;0.80;0.10;;;;;;;3.29;57.31;101319.56;4998877;28;20045;-68
2023/11/16 06:11:26;;;;;;;2.25;0.20;;;;;;;3.30;57.87;101313.56;5000330;28;20116;-68
2023/11/16 06:13:54;;;;;;;3.33;0.20;;;;;;;3.39;57.60;101318.69;5000838;28;20129;-70
2023/11/16 06:16:24;;;;;;;2.85;0.10;;;;;;;3.31;57.44;101323.88;5003334;28;20061;-68
2023/11/16 06:18:51;;;;;;;2.05;0.20;;;;;;;3.37;57.38;101312.66;5005352;28;20064;-69
2023/11/16 06:21:17;;;;;;;0.75;0.10;;;;;;;3.46;57.13;101322.97;4996902;28;20134;-67
2023/11/16 06:23:44;;;;;;;3.63;0.22;;;;;;;3.51;57.12;101316.03;4993590;28;20034;-70
2023/11/16 06:26:10;;;;;;;5.05;0.35;;;;;;;3.52;57.15;101325.53;4998885;28;20089;-69
2023/11/16 06:28:35;;;;;;;2.17;0.13;;;;;;;3.57;57.01;101321.19;4997771;28;20085;-70
2023/11/16 06:31:01;;;;;;;2.72;0.10;;;;;;;3.60;57.37;101320.34;4998291;28;20044;-69
2023/11/16 06:33:27;;;;;;;1.45;0.20;;;;;;;3.56;57.41;101318.63;5005841;28;20038;-70
2023/11/16 06:35:53;;;;;;;2.55;0.20;;;;;;;3.55;57.40;101317.75;4990611;28;20083;-72
2023/11/16 06:38:19;;;;;;;0.93;0.20;;;;;;;3.58;57.52;101322.94;4994411;28;20060;-70
2023/11/16 06:40:45;;;;;;;0.50;0.20;;;;;;;3.66;57.49;101324.63;5006458;28;20124;-69
2023/11/16 06:43:13;;;;;;;3.45;0.10;;;;;;;3.77;57.63;101320.28;4998323;28;20511;-71
2023/11/16 06:45:40;;;;;;;4.85;0.65;;;;;;;3.71;57.75;101328.03;5001024;28;20022;-68
2023/11/16 06:48:07;;;;;;;7.18;0.30;;;;;;;3.83;57.49;101337.47;4996103;28;20030;-70
2023/11/16 06:50:34;;;;;;;2.78;0.20;;;;;;;3.85;56.95;101331.44;5000791;28;20091;-71
2023/11/16 06:53:04;;;;;;;4.15;0.10;;;;;;;3.78;57.02;101340.06;4981839;28;20116;-73
2023/11/16 06:55:32;;;;;;;3.13;0.57;;;;;;;3.74;57.13;101348.75;5017279;28;20030;-72
2023/11/16 06:57:59;;;;;;;2.00;0.15;;;;;;;3.82;57.09;101344.38;5007178;28;20080;-72
2023/11/16 07:00:26;;;;;;;2.92;0.10;;;;;;;3.84;56.78;101350.41;5009300;28;20033;-72
2023/11/16 07:02:52;;;;;;;0.47;0.10;;;;;;;3.79;57.06;101354.75;5005373;28;20036;-73
2023/11/16 07:05:20;;;;;;;3.03;0.10;;;;;;;3.80;57.17;101348.69;5001881;28;20066;-72
2023/11/16 07:07:45;;;;;;;1.55;0.35;;;;;;;3.76;57.37;101357.31;4999801;28;20459;-72
2023/11/16 07:10:11;;;;;;;2.42;0.25;;;;;;;3.83;57.22;101363.31;4984705;28;20049;-71
2023/11/16 07:12:41;;;;;;;4.57;0.20;;;;;;;3.76;57.47;101367.66;4999180;28;20037;-71
2023/11/16 07:15:08;;;;;;;2.42;0.20;;;;;;;3.92;57.31;101369.34;4998898;28;20045;-72
2023/11/16 07:17:34;;;;;;;1.73;0.10;;;;;;;3.95;57.22;101373.63;5003943;28;20044;-69
2023/11/16 07:19:59;;;;;;;3.03;0.10;;;;;;;3.98;57.52;101374.50;4999364;28;20037;-69
2023/11/16 07:22:25;;;;;;;4.70;0.20;;;;;;;3.99;57.06;101373.63;4999285;28;20030;-69
2023/11/16 07:24:51;;;;;;;3.60;0.43;;;;;;;4.00;56.96;101377.06;5003326;28;20045;-72
2023/11/16 07:27:18;;;;;;;3.95;0.35;;;;;;;4.02;57.18;101372.72;4999982;28;20715;-69
2023/11/16 07:29:44;;;;;;;1.23;0.20;;;;;;;3.96;57.50;101365.00;4999018;28;20541;-69
2023/11/16 07:32:11;;;;;;;2.40;0.20;;;;;;;4.13;57.50;101364.94;4997820;28;20069;-69
2023/11/16 07:34:41;;;;;;;2.67;0.20;;;;;;;4.29;57.36;101370.88;4999041;28;20128;-70
2023/11/16 07:37:07;;;;;;;5.85;0.25;;;;;;;4.08;57.40;101370.13;4999895;28;20041;-71
2023/11/16 07:39:34;;;;;;;1.17;0.15;;;;;;;4.29;57.11;101374.31;4998936;28;20033;-72
2023/11/16 07:42:00;;;;;;;0.50;0.25;;;;;;;4.51;57.16;101372.44;4991089;28;20037;-72
2023/11/16 07:44:27;;;;;;;3.22;0.32;;;;;;;4.57;56.48;101376.75;5001387;28;20487;-70
2023/11/16 07:46:53;;;;;;;3.30;0.43;;;;;;;4.55;56.27;101374.16;5001853;28;20068;-71
2023/11/16 07:49:19;;;;;;;5.85;0.75;;;;;;;4.59;56.81;101375.00;4995532;28;20736;-71
2023/11/16 07:51:45;;;;;;;1.30;0.20;;;;;;;4.45;56.45;101369.03;5009910;28;20041;-70
2023/11/16 07:54:11;;;;;;;5.68;0.30;;;;;;;4.41;56.79;101376.00;4986864;28;20045;-70
2023/11/16 07:56:51;;;;;;;5.80;0.30;;;;;;;4.42;56.69;101386.31;5009122;28;20409;-78
2023/11/16 07:59:18;;;;;;;2.28;0.10;;;;;;;4.43;56.80;101382.88;4988470;28;20064;-75
2023/11/16 08:01:55;;;;;;;1.15;0.40;;;;;;;4.40;57.04;101389.78;5001985;28;20037;-75
2023/11/16 08:04:25;;;;;;;2.55;0.32;;;;;;;4.51;56.77;101381.97;4998678;28;20325;-74
2023/11/16 08:06:54;;;;;;;0.40;0.10;;;;;;;4.37;57.17;101372.56;5011243;28;20025;-71
2023/11/16 08:09:29;;;;;;;1.65;0.20;;;;;;;4.30;57.20;101376.06;4997630;28;20059;-69
2023/11/16 08:11:56;;;;;;;3.50;0.30;;;;;;;4.52;57.16;101373.31;5002840;28;20033;-68
2023/11/16 08:14:24;;;;;;;2.20;0.15;;;;;;;4.40;57.49;101377.69;4995677;28;20040;-69
2023/11/16 08:16:55;;;;;;;2.67;0.45;;;;;;;4.25;57.64;101371.75;5000218;28;20102;-69
2023/11/16 08:19:23;;;;;;;2.33;0.10;;;;;;;4.46;57.50;101381.13;4987710;28;20037;-69
2023/11/16 08:21:49;;;;;;;2.33;0.35;;;;;;;4.66;56.86;101381.84;5018474;28;20275;-78
2023/11/16 08:24:15;;;;;;;1.25;0.00;;;;;;;4.90;56.84;101378.25;4986937;28;20497;-69
2023/11/16 08:26:43;;;;;;;2.10;0.25;;;;;;;5.02;56.66;101372.09;5003807;28;20029;-68
2023/11/16 08:29:09;;;;;;;6.53;0.75;;;;;;;4.97;56.41;101369.56;4995188;28;20041;-68
2023/11/16 08:31:35;;;;;;;0.60;0.10;;;;;;;5.14;56.75;101365.94;5002418;28;20049;-67
2023/11/16 08:34:01;;;;;;;2.50;0.30;;;;;;;5.21;56.53;101360.69;5001507;28;20042;-68
2023/11/16 08:36:28;;;;;;;2.85;0.10;;;;;;;5.43;56.09;101358.72;4998006;28;20045;-69
2023/11/16 08:38:54;;;;;;;0.35;0.10;;;;;;;5.55;55.66;101352.56;4999005;28;20531;-66
2023/11/16 08:41:22;;;;;;;2.30;0.10;;;;;;;6.32;55.44;101341.22;4983429;28;20191;-67
2023/11/16 08:43:51;;;;;;;3.20;0.10;;;;;;;6.46;54.31;101339.28;4999133;28;20531;-65
2023/11/16 08:46:20;;;;;;;3.45;0.20;;;;;;;6.58;53.80;101337.38;4996823;28;20124;-66
2023/11/16 08:48:47;;;;;;;1.55;0.10;;;;;;;6.74;54.27;101336.22;4984819;28;20099;-66
2023/11/16 08:51:15;;;;;;;3.92;0.40;;;;;;;7.06;53.43;101334.81;4995147;28;20049;-67
2023/11/16 08:53:43;;;;;;;2.30;0.20;;;;;;;7.67;52.65;101336.28;5000009;28;20385;-67
2023/11/16 08:56:09;;;;;;;5.47;0.65;;;;;;;8.26;50.78;101338.47;4996099;28;20045;-65
2023/11/16 08:58:36;;;;;;;2.42;0.38;;;;;;;8.51;48.19;101335.28;4997135;28;20044;-65
2023/11/16 09:01:04;;;;;;;1.65;0.38;;;;;;;8.85;47.63;101332.75;5000748;28;20486;-67
2023/11/16 09:03:33;;;;;;;2.47;0.30;;;;;;;9.23;47.90;101337.84;4999415;28;20500;-67
2023/11/16 09:06:06;;;;;;;4.47;0.20;;;;;;;9.11;46.45;101336.44;5000485;28;20083;-67
2023/11/16 09:08:37;;;;;;;2.83;0.30;;;;;;;9.12;45.70;101332.91;4998292;28;20073;-66
2023/11/16 09:11:07;;;;;;;1.65;0.38;;;;;;;8.64;47.72;101333.25;5001214;28;21294;-66
2023/11/16 09:13:33;;;;;;;1.10;0.10;;;;;;;8.95;47.15;101323.78;4999530;28;20527;-67
2023/11/16 09:15:59;;;;;;;5.68;0.10;;;;;;;9.30;45.90;101324.59;4998196;28;20037;-65
2023/11/16 09:18:27;;;;;;;0.57;0.00;;;;;;;9.61;45.08;101326.38;4997628;28;21655;-66
2023/11/16 09:20:56;;;;;;;1.88;0.30;;;;;;;9.58;44.24;101329.03;4997384;28;20176;-66
2023/11/16 09:23:24;;;;;;;1.48;0.20;;;;;;;9.72;43.46;101333.84;4995856;28;20041;-67
2023/11/16 09:25:50;;;;;;;3.13;0.52;;;;;;;9.73;45.36;101331.22;5003596;28;20034;-67
2023/11/16 09:28:17;;;;;;;2.67;0.20;;;;;;;9.70;42.95;101333.03;4996610;28;20088;-66
2023/11/16 09:30:43;;;;;;;3.97;0.20;;;;;;;9.85;42.75;101326.56;4998290;28;20475;-67
2023/11/16 09:33:10;;;;;;;1.00;0.10;;;;;;;9.69;42.60;101321.75;5000227;28;20117;-65
2023/11/16 09:35:42;;;;;;;2.45;0.40;;;;;;;9.59;42.67;101330.78;4998481;28;20068;-66
2023/11/16 09:38:10;;;;;;;0.20;0.03;;;;;;;9.59;42.57;101330.78;5009374;28;20041;-68
2023/11/16 09:40:36;;;;;;;0.38;0.10;;;;;;;9.97;41.71;101334.03;4997404;28;20077;-66
2023/11/16 09:43:17;;;;;;;2.67;0.10;;;;;;;9.69;42.43;101326.97;4996244;28;20697;-67
2023/11/16 09:45:50;;;;;;;1.35;0.10;;;;;;;9.84;41.85;101335.31;4999484;28;20029;-65
2023/11/16 09:48:20;;;;;;;4.10;0.55;;;;;;;9.72;42.28;101332.13;5000954;28;20084;-67
2023/11/16 09:50:48;;;;;;;2.90;0.00;;;;;;;9.88;40.99;101340.41;4995788;28;20084;-67
2023/11/16 09:53:18;;;;;;;1.45;0.10;;;;;;;9.74;39.52;101338.13;4994167;28;20054;-66
2023/11/16 09:56:04;;;;;;;3.00;0.08;;;;;;;9.89;40.52;101338.63;4983826;28;20042;-67
2023/11/16 09:58:36;;;;;;;0.40;0.00;;;;;;;9.42;39.54;101335.59;4993413;28;20144;-66
2023/11/16 10:01:05;;;;;;;;;;;;;;;9.51;39.78;101327.50;4996323;28;20030;-67
2023/11/16 10:03:34;;;;;;;1.63;0.10;;;;;;;9.54;41.06;101333.50;4993843;28;21804;-67
2023/11/16 10:06:01;;;;;;;1.65;0.00;;;;;;;9.36;39.02;101329.63;4994136;28;20619;-67
2023/11/16 10:08:28;;;;;;;0.43;0.00;;;;;;;9.80;39.63;101330.16;4988653;28;20103;-67
2023/11/16 10:11:05;;;;;;;1.25;0.10;;;;;;;9.48;39.72;101332.81;4990376;28;20931;-67
2023/11/16 10:13:32;;;;;;;4.85;0.30;;;;;;;8.72;40.59;101341.78;4989053;28;20863;-68
2023/11/16 10:16:11;;;;;;;1.55;0.10;;;;;;;8.43;41.51;101340.69;4977853;28;20246;-65
2023/11/16 10:18:38;;;;;;;3.30;0.20;;;;;;;8.36;41.95;101346.94;4975202;28;20061;-66
2023/11/16 10:21:04;;;;;;;2.40;0.08;;;;;;;8.31;41.45;101351.38;4994399;28;20194;-67
2023/11/16 10:23:31;;;;;;;1.02;0.10;;;;;;;8.24;40.77;101355.03;4992309;28;20041;-67
2023/11/16 10:26:00;;;;;;;0.17;0.00;;;;;;;8.15;41.08;101348.28;4996117;28;20508;-66
2023/11/16 10:28:26;;;;;;;0.77;0.17;;;;;;;7.94;41.60;101354.81;4995866;28;20198;-67
2023/11/16 10:30:57;;;;;;;0.57;0.00;;;;;;;8.07;41.53;101353.66;4988576;28;20045;-67
2023/11/16 10:33:24;;;;;;;0.70;0.00;;;;;;;8.08;41.40;101360.56;4995958;28;20408;-66
2023/11/16 10:35:51;;;;;;;1.02;0.10;;;;;;;7.97;42.81;101359.94;5004887;28;20045;-67
2023/11/16 10:38:18;;;;;;;2.78;0.10;;;;;;;8.05;43.25;101355.44;5002910;28;20473;-66
2023/11/16 10:40:49;;;;;;;2.13;0.10;;;;;;;8.19;42.62;101359.50;4997938;28;20093;-67
2023/11/16 10:43:20;;;;;;;0.47;0.10;;;;;;;8.05;43.20;101360.66;5005579;28;20073;-67
2023/11/16 10:45:47;;;;;;;2.97;0.52;;;;;;;8.19;42.75;101360.34;5007881;28;20053;-67
2023/11/16 10:48:13;;;;;;;3.88;0.10;;;;;;;8.24;42.35;101360.22;4996204;28;20037;-67
2023/11/16 10:50:42;;;;;;;1.83;0.10;;;;;;;8.35;42.18;101355.63;4999852;28;20488;-66
2023/11/16 10:53:16;;;;;;;2.13;0.32;;;;;;;8.45;42.26;101357.16;4998882;28;20384;-67
2023/11/16 10:55:46;;;;;;;0.30;0.10;;;;;;;8.35;42.88;101358.25;5001228;28;20034;-66
2023/11/16 10:58:13;;;;;;;1.35;0.00;;;;;;;8.32;43.61;101366.13;5000437;28;20050;-66
2023/11/16 11:00:41;;;;;;;2.70;0.00;;;;;;;8.15;43.11;101359.53;4999043;28;20572;-67
2023/11/16 11:03:08;;;;;;;0.68;0.10;;;;;;;8.28;42.92;101351.47;4997738;28;20041;-67
2023/11/16 11:05:37;;;;;;;0.60;0.00;;;;;;;8.22;43.01;101349.00;4999445;28;20033;-67
2023/11/16 11:08:08;;;;;;;0.45;0.10;;;;;;;8.33;42.61;101340.03;4999329;28;20037;-66
2023/11/16 11:10:37;;;;;;;3.25;0.10;;;;;;;8.36;42.35;101346.94;4997288;28;20037;-67
2023/11/16 11:13:06;;;;;;;2.85;0.40;;;;;;;8.35;41.87;101346.06;4988620;28;20116;-67
2023/11/16 11:15:37;;;;;;;2.28;0.13;;;;;;;8.22;40.83;101341.19;4998503;28;20402;-67
2023/11/16 11:18:08;;;;;;;2.25;0.10;;;;;;;7.87;41.69;101342.78;4997403;28;20088;-66
2023/11/16 11:20:40;;;;;;;3.58;0.10;;;;;;;7.64;42.63;101341.53;4999396;28;20025;-67
2023/11/16 11:23:15;;;;;;;0.57;0.20;;;;;;;7.52;43.31;101334.81;4998343;28;20084;-68
2023/11/16 11:25:42;;;;;;;3.95;0.40;;;;;;;7.37;42.08;101329.91;5004996;28;20033;-67
2023/11/16 11:28:08;;;;;;;1.15;0.10;;;;;;;7.37;41.69;101326.44;5001951;28;20041;-66
2023/11/16 11:30:38;;;;;;;0.57;0.10;;;;;;;7.46;42.18;101327.13;5001791;28;21605;-66
2023/11/16 11:33:07;;;;;;;1.17;0.10;;;;;;;7.79;41.01;101316.09;5000985;28;20124;-67
2023/11/16 11:35:37;;;;;;;2.13;0.70;;;;;;;8.14;40.86;101317.94;4995358;28;20038;-65